レオポール・セダール・サンゴール国際空港の過去48時間の天気

レオポール・セダール・サンゴール国際空港 (Dakar / Yoff)

現在時刻: 9/22 17:29 GMT (9/22 17:29 UTC) 以下の時間は現地時間です。

過去48時間のMETAR気象情報
時間 風向 風速(m/s) 視程 気温(℃) 湿度(%) 気圧(hPa) 天気現象
22 17:00 北西 5 10km以上 31 75 1012
22 16:00 6 10km以上 31 75 1012
22 15:00 北西 6 10km以上 31 75 1013
22 14:00 北西 4 10km以上 31 75 1013
22 13:00 北西 4 10km以上 31 75 1014
22 12:00 北西 1 10km以上 30 79 1015
22 11:00 1 10km以上 30 79 1015
22 10:00 静穏 0 10km以上 29 84 1015
22 09:00 静穏 0 10km以上 28 89 1015
22 08:00 東北東 1 10km以上 25 100 1014
22 07:00 北東 1 10km以上 25 94 1014
22 06:00 静穏 0 10km以上 24 100 1014
22 03:00 南南東 1 10km以上 25 89 1013
22 00:00 南南東 1 10km以上 26 89 1014
21 23:00 南南東 1 10km以上 26 89 1014
21 22:00 南西 1 10km以上 26 89 1014
21 21:00 南西 2 10km以上 26 89 1013
21 20:00 2 10km以上 27 79 1012
21 19:30 静穏 0 10km以上 28 79 1012
21 19:00 静穏 0 10km以上 28 79 1012
21 18:00 静穏 0 10km以上 29 70 1012
21 17:00 南南東 1 10km以上 29 70 1012
21 16:00 南南東 4 10km以上 29 70 1013
21 15:00 4 10km以上 30 70 1015
21 14:00 3 10km以上 28 79 1016
21 13:00 4 10km以上 26 84 1017
21 12:00 7 10km以上 28 74 1017
21 11:00 西南西 2 10km以上 26 84 1015
21 10:00 静穏 0 9000m 24 94 1016
21 09:00 1 8000m 23 94 1016
21 08:00 8 5000m 27 89 1016 雷雨
21 07:00 西 2 10km以上 27 84 1014
21 06:00 南西 1 10km以上 27 84 1014
21 03:00 静穏 0 10km以上 27 89 1013
21 00:00 南西 1 10km以上 27 89 1013
20 23:00 南西 1 10km以上 25 94 1014
20 22:00 南西 1 10km以上 27 89 1013
20 20:00 2 10km以上 28 84 1013
20 19:00 2 10km以上 29 79 1013
20 18:00 2 10km以上 29 79 1013
GOOY 221700Z 32010KT 9999 BKN011TCU 31/26 Q1012
GOOY 221600Z 36012KT 9999 BKN011TCU 31/26 Q1012
GOOY 221500Z 32012KT 9999 BKN011TCU 31/26 Q1013
GOOY 221400Z 32008KT 9999 BKN011 31/26 Q1013
GOOY 221300Z 32008KT 9999 BKN011 31/26 Q1014
GOOY 221200Z 32002KT 9999 SCT011 30/26 Q1015
GOOY 221100Z 36002KT 9999 SCT011 30/26 Q1015
GOOY 221000Z 00000KT 9999 SCT011 29/26 Q1015
GOOY 220900Z 00000KT CAVOK 28/26 Q1015
GOOY 220800Z 06002KT 9999 FEW011 25/25 Q1014
GOOY 220700Z 04002KT 9999 FEW011 25/24 Q1014
GOOY 220600Z 00000KT CAVOK 24/24 Q1014
GOOY 220300Z 16002KT CAVOK 25/23 Q1013
GOOY 220000Z 16002KT CAVOK 26/24 Q1014
GOOY 212300Z 16002KT CAVOK 26/24 Q1014
GOOY 212200Z 22002KT CAVOK 26/24 Q1014
GOOY 212100Z 22004KT CAVOK 26/24 Q1013
GOOY 212000Z 36004KT 9999 FEW011 27/23 Q1012
GOOY 211930Z 00000KT CAVOK 28/24 Q1012
GOOY 211900Z 00000KT CAVOK 28/24 Q1012
GOOY 211800Z 00000KT CAVOK 29/23 Q1012
GOOY 211700Z 16002KT 9999 FEW011 29/23 Q1012
GOOY 211600Z 16008KT 9999 FEW011 29/23 Q1013
GOOY 211500Z 10008KT 9999 FEW011 30/24 Q1015
GOOY 211400Z 10006KT 9999 SCT011 28/24 Q1016
GOOY 211300Z 10008KT 9999 BKN011 26/23 Q1017
GOOY 211200Z 10014KT 9999 BKN011 28/23 Q1017
GOOY 211100Z 24004KT 9999 BKN011 26/23 Q1015
GOOY 211000Z 00000KT 9000 SCT011 FEW030CB 24/23 Q1016 RERA
GOOY 210900Z 10002KT 8000 TS BKN011 FEW030CB 23/22 Q1016 RERA
GOOY 210800Z 10016KT 5000 TSRA BKN011 FEW030CB 27/25 Q1016
GOOY 210700Z 28004KT 9999 SCT013 27/24 Q1014
GOOY 210600Z 22002KT 9999 SCT013 27/24 Q1014
GOOY 210300Z 00000KT 9999 SCT013 27/25 Q1013
GOOY 210000Z 22002KT CAVOK 27/25 Q1013
GOOY 202300Z 22002KT CAVOK 25/24 Q1014
GOOY 202200Z 22002KT 9999 FEW013 27/25 Q1013
GOOY 202000Z 18004KT 9999 FEW013 28/25 Q1013
GOOY 201900Z 18004KT 9999 FEW013 29/25 Q1013
GOOY 201800Z 18004KT 9999 SCT011 29/25 Q1013